Capt. Ted — WDD6210 — position and weather

sailwx.info

Track history (hours):
 
Tides and Currents Weather Stations Pressure Air Temp Water Temp Dewpoint Dewpoint Depression Visibility Wind Speed Wind Dir Waves Ship Positions

Capt. Ted

Owner: Salisbury Towing Corporation, Havre de Grace, MD. More information available from US FCC via Universal Licensing System and Coast Guard Vessel Documentation Center.

Last reported at 2016-Feb-10 14:31 UTC. Time now 2016-Feb-10 15:14 UTC.
Position N 38°56' W 076°25'.

Length 32 m; draft 2.8 m.

Type: Tug. MMSI: 367169710.

Date/timePositionNaut miles runAvg speedWind from/ knotsBaromVisibWave heightAir tempDewpointWater temp
2016-Feb-10 14:31N 38°56' W 076°25'1 0.0
2016-Feb-08 23:19N 38°57' W 076°24'33 6.8
2016-Feb-08 18:32N 39°25' W 076°03'7 6.6
2016-Feb-08 17:33N 39°31' W 076°05'3 2.8
2016-Feb-08 16:33N 39°34' W 076°05'1 0.7
2016-Feb-08 15:33N 39°33' W 076°05'1 1.4
2016-Feb-08 14:33N 39°34' W 076°06'0 0.0
2016-Feb-08 12:34N 39°34' W 076°06'17 4.0
2016-Feb-08 08:22N 39°19' W 076°13'4 4.4
2016-Feb-08 07:26N 39°16' W 076°16'4 4.6
2016-Feb-08 06:29N 39°13' W 076°21'4 4.7
2016-Feb-08 05:33N 39°11' W 076°26'5 5.3
2016-Feb-08 04:33N 39°13' W 076°32'2 1.8
2016-Feb-08 03:33N 39°13' W 076°35'0 0.2
2016-Feb-08 02:33N 39°13' W 076°35'0 0.0
2016-Feb-08 01:33N 39°13' W 076°35'0 0.0
2016-Feb-08 00:34N 39°13' W 076°35'0 0.0
2016-Feb-07 23:34N 39°13' W 076°35'2 2.0
2016-Feb-07 22:33N 39°15' W 076°34'2 2.1
2016-Feb-07 21:33N 39°15' W 076°36'4 4.2
2016-Feb-07 20:33N 39°13' W 076°31'7 7.3
2016-Feb-07 19:33N 39°08' W 076°24'28 6.8
2016-Feb-07 15:21N 38°40' W 076°28'39 6.4
2016-Feb-07 09:20N 38°02' W 076°14'  
2016-Jan-31 16:15N 37°58' W 076°17'6 8.6
2016-Jan-31 15:33N 38°01' W 076°23'8 8.3
2016-Jan-31 14:33N 38°06' W 076°31'  
Track history (hours):
 
Tides and Currents Weather Stations Pressure Air Temp Water Temp Dewpoint Dewpoint Depression Visibility Wind Speed Wind Dir Waves Ship Positions

Capt. Ted

Owner: Salisbury Towing Corporation, Havre de Grace, MD. More information available from US FCC via Universal Licensing System and Coast Guard Vessel Documentation Center.

Last reported at 2016-Feb-10 14:31 UTC. Time now 2016-Feb-10 15:14 UTC.
Position N 38°56' W 076°25'.

Length 32 m; draft 2.8 m.

Type: Tug. MMSI: 367169710.

Date/timePositionNaut miles runAvg speedWind from/ knotsBaromVisibWave heightAir tempDewpointWater temp
2016-Feb-10 14:31N 38°56' W 076°25'1 0.0
2016-Feb-08 23:19N 38°57' W 076°24'33 6.8
2016-Feb-08 18:32N 39°25' W 076°03'7 6.6
2016-Feb-08 17:33N 39°31' W 076°05'3 2.8
2016-Feb-08 16:33N 39°34' W 076°05'1 0.7
2016-Feb-08 15:33N 39°33' W 076°05'1 1.4
2016-Feb-08 14:33N 39°34' W 076°06'0 0.0
2016-Feb-08 12:34N 39°34' W 076°06'17 4.0
2016-Feb-08 08:22N 39°19' W 076°13'4 4.4
2016-Feb-08 07:26N 39°16' W 076°16'4 4.6
2016-Feb-08 06:29N 39°13' W 076°21'4 4.7
2016-Feb-08 05:33N 39°11' W 076°26'5 5.3
2016-Feb-08 04:33N 39°13' W 076°32'2 1.8
2016-Feb-08 03:33N 39°13' W 076°35'0 0.2
2016-Feb-08 02:33N 39°13' W 076°35'0 0.0
2016-Feb-08 01:33N 39°13' W 076°35'0 0.0
2016-Feb-08 00:34N 39°13' W 076°35'0 0.0
2016-Feb-07 23:34N 39°13' W 076°35'2 2.0
2016-Feb-07 22:33N 39°15' W 076°34'2 2.1
2016-Feb-07 21:33N 39°15' W 076°36'4 4.2
2016-Feb-07 20:33N 39°13' W 076°31'7 7.3
2016-Feb-07 19:33N 39°08' W 076°24'28 6.8
2016-Feb-07 15:21N 38°40' W 076°28'39 6.4
2016-Feb-07 09:20N 38°02' W 076°14'  
2016-Jan-31 16:15N 37°58' W 076°17'6 8.6
2016-Jan-31 15:33N 38°01' W 076°23'8 8.3
2016-Jan-31 14:33N 38°06' W 076°31'  

Dump ship's entire track history